Time;durP1;ratioP1;P1;durP2;ratioP2;P2;SDS_P1;SDS_P2;PMS_P1;PMS_P2;Temp;Humidity;BMP_temperature;BMP_pressure;BME280_temperature;BME280_humidity;BME280_pressure;Samples;Min_cycle;Max_cycle;Signal;HPM_P1;HPM_P2
2022/05/11 04:00:34;;;;;;;16.37;13.10;;;15.10;99.90;;;-143.14;100.00;56521.75;5912813;23;20535;-74
2022/05/11 04:03:01;;;;;;;13.80;12.37;;;15.10;99.90;;;-143.14;100.00;56521.75;4946918;29;20457;-74
2022/05/11 04:05:29;;;;;;;15.27;13.67;;;15.10;99.90;;;-143.14;100.00;56521.75;4946706;29;20456;-74
2022/05/11 04:07:56;;;;;;;16.10;14.43;;;15.10;99.90;;;-143.14;100.00;56521.75;4947039;29;20549;-74
2022/05/11 04:10:23;;;;;;;15.60;13.73;;;15.10;99.90;;;-143.14;100.00;56521.75;4947231;29;20540;-74
2022/05/11 04:12:50;;;;;;;17.57;15.60;;;15.10;99.90;;;-143.14;100.00;56521.75;4946829;29;20493;-75
2022/05/11 04:15:18;;;;;;;18.20;14.43;;;15.10;99.90;;;-143.14;100.00;56521.75;4947075;28;20553;-74
2022/05/11 04:17:46;;;;;;;16.13;13.43;;;15.10;99.90;;;-143.14;100.00;56521.75;4950553;29;20445;-75
2022/05/11 04:20:19;;;;;;;18.83;13.60;;;15.10;99.90;;;-143.14;100.00;56521.75;4950705;28;20457;-74
2022/05/11 04:22:47;;;;;;;18.10;13.60;;;15.10;99.90;;;-143.14;100.00;56521.75;4950332;29;20956;-74
2022/05/11 04:25:16;;;;;;;16.10;13.27;;;15.10;99.90;;;-143.14;100.00;56521.75;4949867;28;20464;-74
2022/05/11 04:27:45;;;;;;;17.40;13.70;;;15.00;99.90;;;-143.14;100.00;56521.75;4950070;29;20516;-74
2022/05/11 04:30:14;;;;;;;15.10;13.50;;;15.00;99.90;;;-143.14;100.00;56521.75;4950052;28;20461;-74
2022/05/11 04:32:41;;;;;;;15.37;13.77;;;15.00;99.90;;;-143.14;100.00;56521.75;4950074;28;20810;-74
2022/05/11 04:35:11;;;;;;;18.03;14.67;;;15.00;99.90;;;-143.14;100.00;56521.75;4949530;29;20461;-74
2022/05/11 04:37:38;;;;;;;15.73;13.17;;;15.00;99.90;;;-143.14;100.00;56521.75;4949745;28;20453;-74
2022/05/11 04:40:08;;;;;;;15.40;13.47;;;14.90;99.90;;;-143.14;100.00;56521.75;4950202;29;20476;-74
2022/05/11 04:42:35;;;;;;;18.27;14.00;;;14.90;99.90;;;-143.14;100.00;56521.75;4950119;28;20492;-74
2022/05/11 04:45:02;;;;;;;15.50;13.20;;;14.90;99.90;;;-143.14;100.00;56521.75;4949540;29;20472;-74
2022/05/11 04:47:29;;;;;;;16.80;14.33;;;14.90;99.90;;;-143.14;100.00;56521.75;4949594;29;20510;-75
2022/05/11 04:49:57;;;;;;;16.60;14.80;;;14.90;99.90;;;-143.14;100.00;56521.75;4949806;29;20458;-74
2022/05/11 04:52:25;;;;;;;18.17;14.37;;;14.90;99.90;;;-143.14;100.00;56521.75;4950200;28;20477;-74
2022/05/11 04:54:52;;;;;;;15.77;13.40;;;14.80;99.90;;;-143.14;100.00;56521.75;4949668;29;20453;-74
2022/05/11 04:57:20;;;;;;;18.63;14.47;;;14.80;99.90;;;-143.14;100.00;56521.75;4950280;29;21117;-74
2022/05/11 04:59:49;;;;;;;18.33;14.87;;;14.90;99.90;;;-143.14;100.00;56521.75;4950011;29;20503;-74
2022/05/11 05:02:19;;;;;;;19.10;14.93;;;14.90;99.90;;;-143.14;100.00;56521.75;4950251;29;20525;-74
2022/05/11 05:04:47;;;;;;;17.83;14.33;;;14.90;99.90;;;-143.14;100.00;56521.75;4949373;29;21044;-74
2022/05/11 05:07:14;;;;;;;15.83;14.20;;;14.90;99.90;;;-143.14;100.00;56521.75;4949721;29;20457;-75
2022/05/11 05:09:43;;;;;;;24.00;16.37;;;14.90;99.90;;;-143.14;100.00;56521.75;4949728;29;20464;-78
2022/05/11 05:12:13;;;;;;;18.73;15.40;;;14.90;99.90;;;-143.14;100.00;56521.75;4949802;28;20528;-71
2022/05/11 05:14:42;;;;;;;18.53;14.87;;;14.90;99.90;;;-143.14;100.00;56521.75;4948999;28;20465;-67
2022/05/11 05:17:13;;;;;;;17.20;14.40;;;14.90;99.90;;;-143.14;100.00;56521.75;4949900;29;20468;-67
2022/05/11 05:19:43;;;;;;;16.13;14.43;;;14.90;99.90;;;-143.14;100.00;56521.75;4949496;29;20501;-74
2022/05/11 05:22:12;;;;;;;18.57;15.07;;;14.90;99.90;;;-143.14;100.00;56521.75;4948804;29;20540;-75
2022/05/11 05:24:39;;;;;;;18.33;14.73;;;14.90;99.90;;;-143.14;100.00;56521.75;4948390;29;20468;-74
2022/05/11 05:27:08;;;;;;;19.43;15.60;;;14.90;99.90;;;-143.14;100.00;56521.75;4948645;28;20449;-74
2022/05/11 05:32:20;;;;;;;20.10;15.60;;;14.90;99.90;;;-143.14;100.00;56521.75;4948624;29;20852;-74
2022/05/11 05:34:47;;;;;;;17.17;14.93;;;14.90;99.90;;;-143.14;100.00;56521.75;4947760;29;20461;-74
2022/05/11 05:37:17;;;;;;;17.50;15.20;;;15.00;99.90;;;-143.14;100.00;56521.75;4948509;29;20552;-75
2022/05/11 05:39:44;;;;;;;19.50;14.30;;;15.00;99.90;;;-143.14;100.00;56521.75;4949285;28;20596;-74
2022/05/11 05:42:20;;;;;;;19.80;15.50;;;15.00;99.90;;;-143.14;100.00;56521.75;4949177;28;21007;-74
2022/05/11 05:44:47;;;;;;;19.43;16.20;;;15.00;99.90;;;-143.14;100.00;56521.75;4948471;29;20438;-74
2022/05/11 05:47:15;;;;;;;17.63;14.50;;;15.10;99.90;;;-143.14;100.00;56521.75;4949191;29;20552;-74
2022/05/11 05:49:42;;;;;;;17.40;13.80;;;15.10;99.90;;;-143.14;100.00;56521.75;4949203;29;20876;-74
2022/05/11 05:52:16;;;;;;;14.33;12.90;;;15.10;99.90;;;-143.14;100.00;56521.75;4948967;29;20473;-75
2022/05/11 05:54:43;;;;;;;15.57;13.97;;;15.20;99.90;;;-143.14;100.00;56521.75;4948479;28;20508;-74
2022/05/11 05:57:10;;;;;;;18.30;14.80;;;15.30;99.90;;;-143.14;100.00;56521.75;4949219;29;20453;-75
2022/05/11 05:59:38;;;;;;;17.50;14.17;;;15.40;99.90;;;-143.14;100.00;56521.75;4949109;29;20501;-76
2022/05/11 06:02:09;;;;;;;15.07;13.47;;;15.40;99.90;;;-143.14;100.00;56521.75;4946683;29;20485;-74
2022/05/11 06:04:37;;;;;;;15.13;13.50;;;15.40;99.90;;;-143.14;100.00;56521.75;4947365;29;20465;-76
2022/05/11 06:07:04;;;;;;;18.80;14.43;;;15.50;99.90;;;-143.14;100.00;56521.75;4947883;29;20453;-75
2022/05/11 06:09:32;;;;;;;14.20;11.40;;;15.60;99.90;;;-143.14;100.00;56521.75;4947829;29;20453;-75
2022/05/11 06:11:59;;;;;;;17.70;12.30;;;15.60;99.90;;;-143.14;100.00;56521.75;4947777;29;20469;-75
2022/05/11 06:14:26;;;;;;;15.57;12.10;;;15.70;99.90;;;-143.14;100.00;56521.75;4947257;29;20460;-75
2022/05/11 06:16:54;;;;;;;13.13;11.43;;;15.80;99.90;;;-143.14;100.00;56521.75;4947718;29;20457;-75
2022/05/11 06:19:21;;;;;;;12.00;10.80;;;15.90;99.90;;;-143.14;100.00;56521.75;4948497;29;20499;-73
2022/05/11 06:21:48;;;;;;;12.53;10.90;;;16.00;99.90;;;-143.14;100.00;56521.75;4948738;29;20480;-75
2022/05/11 06:24:16;;;;;;;11.80;9.90;;;16.10;99.90;;;-143.14;100.00;56521.75;4947814;29;20457;-76
2022/05/11 06:26:43;;;;;;;11.50;10.10;;;16.20;99.90;;;-143.14;100.00;56521.75;4948032;28;20857;-75
2022/05/11 06:36:33;;;;;;;12.07;9.70;;;16.50;99.90;;;-143.14;100.00;56521.75;4849704;28;20478;-76
2022/05/11 06:39:00;;;;;;;9.97;8.53;;;16.70;99.90;;;-143.14;100.00;56521.75;4947737;28;20504;-76
2022/05/11 06:41:29;;;;;;;10.10;8.80;;;16.70;99.90;;;-143.14;100.00;56521.75;4948599;28;20477;-75
2022/05/11 06:43:57;;;;;;;13.33;8.20;;;16.90;99.90;;;-143.14;100.00;56521.75;4948426;28;20460;-76
2022/05/11 06:46:24;;;;;;;10.03;8.23;;;17.00;99.90;;;-143.14;100.00;56521.75;4947857;28;20867;-76
2022/05/11 06:48:51;;;;;;;9.77;8.23;;;17.10;99.90;;;-143.14;100.00;56521.75;4948269;28;20468;-76
2022/05/11 06:51:20;;;;;;;9.83;8.77;;;17.20;99.90;;;-143.14;100.00;56521.75;4947759;28;20893;-75
2022/05/11 06:59:24;;;;;;;9.20;8.07;;;17.40;99.90;;;-143.14;100.00;56521.75;4948228;29;20592;-74
2022/05/11 07:01:53;;;;;;;12.53;8.83;;;17.50;99.90;;;-143.14;100.00;56521.75;4947898;28;20489;-75
2022/05/11 07:04:22;;;;;;;10.50;8.00;;;17.60;99.90;;;-143.14;100.00;56521.75;4947854;28;20537;-75
2022/05/11 07:06:49;;;;;;;12.63;7.80;;;17.70;99.90;;;-143.14;100.00;56521.75;4948256;28;20464;-76
2022/05/11 07:09:18;;;;;;;9.37;8.40;;;17.80;99.90;;;-143.14;100.00;56521.75;4948142;28;20453;-76
2022/05/11 07:14:29;;;;;;;8.47;6.80;;;18.00;99.90;;;-143.14;100.00;56521.75;4947540;29;20440;-76
2022/05/11 07:16:57;;;;;;;9.03;6.47;;;18.10;99.90;;;-143.14;100.00;56521.75;4948209;28;20616;-75
2022/05/11 07:19:25;;;;;;;11.30;6.03;;;18.20;99.90;;;-143.14;100.00;56521.75;4947673;28;21031;-76
2022/05/11 07:21:53;;;;;;;7.37;6.67;;;18.30;99.90;;;-143.14;100.00;56521.75;4947724;28;20993;-76
2022/05/11 07:24:21;;;;;;;12.07;6.30;;;18.50;99.90;;;-143.14;100.00;56521.75;4947551;28;20871;-76
2022/05/11 07:26:49;;;;;;;8.60;6.23;;;18.70;99.90;;;-143.14;100.00;56521.75;4947972;28;20735;-74
2022/05/11 07:29:16;;;;;;;6.17;5.57;;;18.80;99.90;;;-143.14;100.00;56521.75;4948252;28;20449;-75
2022/05/11 07:31:46;;;;;;;10.73;6.17;;;19.00;99.90;;;-143.14;100.00;56521.75;4947708;28;20470;-75
2022/05/11 07:34:13;;;;;;;7.00;6.30;;;19.10;99.90;;;-143.14;100.00;56521.75;4947126;28;20465;-75
2022/05/11 07:36:40;;;;;;;6.77;5.43;;;19.30;99.90;;;-143.14;100.00;56521.75;4947581;28;20481;-76
2022/05/11 07:39:09;;;;;;;6.00;5.07;;;19.40;99.90;;;-143.14;100.00;56521.75;4947794;28;20588;-75
2022/05/11 07:41:38;;;;;;;9.20;5.53;;;19.60;99.90;;;-143.14;100.00;56521.75;4947373;28;20473;-75
2022/05/11 07:44:05;;;;;;;7.50;5.63;;;19.70;99.90;;;-143.14;100.00;56521.75;4947232;28;20938;-76
2022/05/11 07:46:34;;;;;;;6.97;5.53;;;19.90;99.90;;;-143.14;100.00;56521.75;4947717;28;20464;-76
2022/05/11 07:49:02;;;;;;;7.63;5.47;;;20.00;99.90;;;-143.14;100.00;56521.75;4948135;28;20549;-75
2022/05/11 07:51:29;;;;;;;7.50;5.03;;;20.20;99.90;;;-143.14;100.00;56521.75;4951459;28;20481;-75
2022/05/11 07:53:56;;;;;;;8.70;5.40;;;20.20;99.90;;;-143.14;100.00;56521.75;4951269;28;20457;-75
2022/05/11 08:01:54;;;;;;;6.73;5.33;;;20.60;99.90;;;-143.14;100.00;56521.75;4951196;29;21324;-75
2022/05/11 08:04:21;;;;;;;8.40;4.90;;;20.70;99.90;;;-143.14;100.00;56521.75;4950808;28;20885;-75
2022/05/11 08:06:48;;;;;;;10.80;5.10;;;20.80;99.90;;;-143.14;100.00;56521.75;4951025;28;20457;-67
2022/05/11 08:09:15;;;;;;;6.30;5.10;;;20.90;99.90;;;-143.14;100.00;56521.75;4948946;28;20462;-67
2022/05/11 08:11:42;;;;;;;5.67;4.50;;;21.10;99.90;;;-143.14;100.00;56521.75;4949569;28;20558;-68
2022/05/11 08:14:10;;;;;;;6.53;5.27;;;21.20;99.90;;;-143.14;100.00;56521.75;4949129;28;20453;-70
2022/05/11 08:16:37;;;;;;;6.40;4.90;;;21.30;99.90;;;-143.14;100.00;56521.75;4949580;28;20484;-67
2022/05/11 08:19:05;;;;;;;7.47;5.30;;;21.40;99.90;;;-143.14;100.00;56521.75;4949589;28;20934;-69
2022/05/11 08:21:33;;;;;;;7.90;5.60;;;21.60;99.90;;;-143.14;100.00;56521.75;4949332;28;20948;-69
2022/05/11 08:24:01;;;;;;;5.30;4.30;;;21.70;99.90;;;-143.14;100.00;56521.75;4949088;28;20555;-69
2022/05/11 08:26:28;;;;;;;9.07;5.50;;;21.90;99.90;;;-143.14;100.00;56521.75;4949583;28;20485;-67
2022/05/11 08:28:55;;;;;;;6.90;4.70;;;21.90;99.90;;;-143.14;100.00;56521.75;4949065;28;21032;-69
2022/05/11 08:34:08;;;;;;;5.20;4.67;;;22.10;99.90;;;-143.14;100.00;56521.75;4948754;29;21078;-72
2022/05/11 08:36:36;;;;;;;5.97;4.60;;;22.20;99.90;;;-143.14;100.00;56521.75;4949580;28;20465;-67
2022/05/11 08:39:04;;;;;;;4.23;3.83;;;22.40;99.90;;;-143.14;100.00;56521.75;4949089;28;20461;-67
2022/05/11 08:41:39;;;;;;;4.80;4.30;;;22.40;99.90;;;-143.14;100.00;56521.75;4949147;28;20625;-68
2022/05/11 08:44:13;;;;;;;7.13;4.30;;;22.50;99.90;;;-143.14;100.00;56521.75;4949831;28;20481;-72
2022/05/11 08:47:00;;;;;;;4.83;4.30;;;22.60;99.90;;;-143.14;100.00;56521.75;4949686;28;20460;-66
2022/05/11 08:49:46;;;;;;;4.93;4.40;;;22.70;99.90;;;-143.14;100.00;56521.75;4949640;28;20576;-67
2022/05/11 08:52:25;;;;;;;6.47;4.07;;;22.80;99.90;;;-143.14;100.00;56521.75;4949692;28;20474;-68
2022/05/11 08:55:08;;;;;;;7.80;4.30;;;22.90;99.90;;;-143.14;100.00;56521.75;4949451;28;20543;-67
2022/05/11 08:57:37;;;;;;;6.43;5.13;;;23.10;99.90;;;-143.14;100.00;56521.75;4949731;28;21029;-67
2022/05/11 09:00:12;;;;;;;4.60;4.10;;;23.30;99.90;;;-143.14;100.00;56521.75;4949024;28;21048;-67
2022/05/11 09:02:50;;;;;;;5.80;4.33;;;23.40;99.90;;;-143.14;100.00;56521.75;4949585;28;20826;-68
2022/05/11 09:05:20;;;;;;;4.40;4.00;;;23.50;99.90;;;-143.14;100.00;56521.75;4949442;28;20594;-70
2022/05/11 09:07:51;;;;;;;13.60;5.70;;;23.70;99.90;;;-143.14;100.00;56521.75;4949585;28;20462;-67
2022/05/11 09:10:25;;;;;;;8.53;4.50;;;23.90;99.90;;;-143.14;100.00;56521.75;4949543;28;20458;-69
2022/05/11 09:12:58;;;;;;;6.17;4.47;;;24.00;99.90;;;-143.14;100.00;56521.75;4949520;28;20458;-67
2022/05/11 09:15:55;;;;;;;7.00;4.10;;;24.10;99.90;;;-143.14;100.00;56521.75;4948806;28;20837;-71
2022/05/11 09:18:39;;;;;;;7.37;3.80;;;24.20;99.90;;;-143.14;100.00;56521.75;4949441;28;21120;-68
2022/05/11 09:21:21;;;;;;;4.23;3.30;;;24.40;99.90;;;-143.14;100.00;56521.75;4949080;28;20497;-69
2022/05/11 09:24:13;;;;;;;4.47;3.70;;;24.60;99.90;;;-143.14;100.00;56521.75;4949649;28;20464;-67
2022/05/11 09:26:46;;;;;;;3.80;3.10;;;24.70;99.90;;;-143.14;100.00;56521.75;4949184;28;21192;-71
2022/05/11 09:29:22;;;;;;;6.57;4.03;;;24.80;99.90;;;-143.14;100.00;56521.75;4949170;28;20457;-68
2022/05/11 09:31:52;;;;;;;4.80;3.33;;;24.80;99.90;;;-143.14;100.00;56521.75;4948878;28;20898;-71
2022/05/11 09:34:29;;;;;;;4.13;3.10;;;24.90;99.90;;;-143.14;100.00;56521.75;4948829;28;20484;-71
2022/05/11 09:37:02;;;;;;;5.00;3.50;;;24.90;99.90;;;-143.14;100.00;56521.75;4949005;28;20461;-68
2022/05/11 09:39:33;;;;;;;3.80;3.03;;;25.10;99.90;;;-143.14;100.00;56521.75;4948719;28;20465;-67
2022/05/11 09:42:15;;;;;;;6.37;3.97;;;25.10;99.90;;;-143.14;100.00;56521.75;4949028;28;20813;-67
2022/05/11 09:44:46;;;;;;;3.43;3.13;;;25.10;99.90;;;-143.14;100.00;56521.75;4948673;28;20544;-67
2022/05/11 09:47:30;;;;;;;4.00;3.47;;;25.20;99.90;;;-143.14;100.00;56521.75;4948836;28;20899;-67
2022/05/11 09:50:23;;;;;;;2.90;2.70;;;25.20;99.90;;;-143.14;100.00;56521.75;4948976;28;20457;-67
2022/05/11 09:52:50;;;;;;;5.17;3.20;;;25.30;99.90;;;-143.14;100.00;56521.75;4949005;28;20517;-72
2022/05/11 09:55:25;;;;;;;4.30;3.50;;;25.40;99.90;;;-143.14;100.00;56521.75;4948452;28;20549;-70
2022/05/11 09:58:01;;;;;;;4.60;3.70;;;25.40;99.90;;;-143.14;100.00;56521.75;4948578;28;20835;-70
2022/05/11 10:00:36;;;;;;;4.20;3.80;;;25.50;99.90;;;-143.14;100.00;56521.75;4948341;28;21024;-70
2022/05/11 10:03:08;;;;;;;3.63;3.10;;;25.60;99.90;;;-143.14;100.00;56521.75;4948496;28;20444;-68
2022/05/11 10:05:42;;;;;;;4.47;3.70;;;25.60;99.90;;;-143.14;100.00;56521.75;4948935;28;20460;-76
2022/05/11 10:08:22;;;;;;;4.73;3.27;;;25.60;99.90;;;-143.14;100.00;56521.75;4949439;28;20532;-75
2022/05/11 10:10:55;;;;;;;9.20;3.80;;;25.70;99.90;;;-143.14;100.00;56521.75;4948854;28;20473;-76
2022/05/11 10:13:28;;;;;;;4.90;3.63;;;25.80;99.90;;;-143.14;100.00;56521.75;4948925;28;20450;-76
2022/05/11 10:21:54;;;;;;;5.77;3.60;;;26.00;99.90;;;-143.14;100.00;56521.75;4948763;29;20587;-75
2022/05/11 10:24:38;;;;;;;5.60;4.23;;;26.00;99.90;;;-143.14;100.00;56521.75;4948500;28;21223;-76
2022/05/11 10:27:18;;;;;;;4.83;3.20;;;26.00;99.90;;;-143.14;100.00;56521.75;4949635;28;20544;-76
2022/05/11 10:30:03;;;;;;;3.90;3.50;;;26.10;99.90;;;-143.14;100.00;56521.75;4948731;28;20832;-75
2022/05/11 10:32:53;;;;;;;5.30;3.73;;;26.30;99.90;;;-143.14;100.00;56521.75;4948703;28;21035;-76
2022/05/11 10:35:27;;;;;;;4.83;4.30;;;26.50;99.90;;;-143.14;100.00;56521.75;4945859;28;20505;-75
2022/05/11 10:38:30;;;;;;;4.20;3.80;;;26.50;99.90;;;-143.14;100.00;56521.75;4948559;28;20448;-76
2022/05/11 10:41:10;;;;;;;5.83;5.03;;;26.50;99.90;;;-143.14;100.00;56521.75;4947935;28;20508;-74
2022/05/11 10:43:54;;;;;;;4.40;4.00;;;26.40;99.90;;;-143.14;100.00;56521.75;4948009;28;20463;-76
2022/05/11 10:46:30;;;;;;;5.23;4.40;;;26.40;99.90;;;-143.14;100.00;56521.75;4947714;28;21192;-75
2022/05/11 10:49:22;;;;;;;4.50;4.10;;;26.50;99.90;;;-143.14;100.00;56521.75;4948734;28;20532;-76
2022/05/11 10:52:08;;;;;;;7.80;4.33;;;26.70;99.90;;;-143.14;100.00;56521.75;4948968;28;20516;-76
2022/05/11 10:54:49;;;;;;;5.83;4.47;;;26.80;99.90;;;-143.14;100.00;56521.75;4947101;28;20493;-76
2022/05/11 10:57:30;;;;;;;4.83;4.40;;;27.00;99.90;;;-143.14;100.00;56521.75;4947466;28;20836;-76
2022/05/11 11:00:09;;;;;;;4.57;4.17;;;27.10;99.90;;;-143.14;100.00;56521.75;4948078;28;20873;-76
2022/05/11 11:03:05;;;;;;;5.33;4.50;;;27.10;99.90;;;-143.14;100.00;56521.75;4947736;28;20491;-76
2022/05/11 11:07:11;;;;;;;4.40;4.00;;;27.10;99.90;;;-143.14;100.00;56521.75;4946890;28;20472;-76
2022/05/11 11:08:51;;;;;;;5.47;4.57;;;27.00;99.90;;;-143.14;100.00;56521.75;4947447;28;20985;-77
2022/05/11 11:11:34;;;;;;;5.07;4.57;;;27.00;99.90;;;-143.14;100.00;56521.75;4947314;28;20473;-76
2022/05/11 11:14:05;;;;;;;5.20;4.47;;;27.00;99.90;;;-143.14;100.00;56521.75;4946830;28;20834;-76
2022/05/11 11:16:37;;;;;;;6.53;4.13;;;27.00;99.90;;;-143.14;100.00;56521.75;4947461;28;20471;-76
2022/05/11 11:19:10;;;;;;;8.20;4.23;;;26.90;99.90;;;-143.14;100.00;56521.75;4947664;28;20457;-75
2022/05/11 11:21:42;;;;;;;4.60;4.00;;;26.90;99.90;;;-143.14;100.00;56521.75;4947668;28;20496;-76
2022/05/11 11:24:22;;;;;;;5.90;3.80;;;26.90;99.90;;;-143.14;100.00;56521.75;4946832;28;20809;-75
2022/05/11 11:26:56;;;;;;;5.53;4.10;;;26.90;99.90;;;-143.14;100.00;56521.75;4948113;28;20453;-74
2022/05/11 11:29:29;;;;;;;4.87;4.47;;;26.80;99.90;;;-143.14;100.00;56521.75;4947674;28;20491;-75
2022/05/11 11:32:17;;;;;;;7.93;3.80;;;26.80;99.90;;;-143.14;100.00;56521.75;4947691;28;20477;-75
2022/05/11 11:34:51;;;;;;;5.03;4.27;;;26.80;99.90;;;-143.14;100.00;56521.75;4946702;28;20461;-75
2022/05/11 11:37:41;;;;;;;4.03;3.60;;;26.80;99.90;;;-143.14;100.00;56521.75;4947216;28;21038;-75
2022/05/11 11:40:26;;;;;;;4.27;3.80;;;26.80;99.90;;;-143.14;100.00;56521.75;4947361;28;20497;-75
2022/05/11 11:42:55;;;;;;;5.37;3.80;;;27.00;99.90;;;-143.14;100.00;56521.75;4946201;28;20473;-75
2022/05/11 11:46:03;;;;;;;5.00;4.10;;;27.10;99.90;;;-143.14;100.00;56521.75;4946937;28;20851;-74
2022/05/11 11:48:33;;;;;;;7.77;4.57;;;27.20;99.90;;;-143.14;100.00;56521.75;4947391;28;20512;-76
2022/05/11 11:51:03;;;;;;;7.53;4.17;;;27.40;99.90;;;-143.14;100.00;56521.75;4947116;28;20855;-75
2022/05/11 11:53:42;;;;;;;3.60;3.30;;;27.50;99.90;;;-143.14;100.00;56521.75;4947052;28;20923;-76
2022/05/11 11:56:39;;;;;;;4.13;3.73;;;27.50;99.90;;;-143.14;100.00;56521.75;4944640;28;20997;-76
2022/05/11 11:59:11;;;;;;;5.67;3.43;;;27.60;99.90;;;-143.14;100.00;56521.75;4946479;28;20466;-75
2022/05/11 12:01:43;;;;;;;6.50;3.60;;;27.70;99.90;;;-143.14;100.00;56521.75;4945753;28;20591;-76
2022/05/11 12:04:26;;;;;;;4.30;3.27;;;27.70;99.90;;;-143.14;100.00;56521.75;4945640;28;20442;-76
2022/05/11 12:15:30;;;;;;;4.73;3.30;;;28.00;99.90;;;-143.14;100.00;56521.75;4945156;29;20529;-75
2022/05/11 12:17:57;;;;;;;3.40;3.10;;;28.10;99.90;;;-143.14;100.00;56521.75;4945831;28;20531;-76
2022/05/11 12:20:25;;;;;;;4.63;3.40;;;28.10;99.90;;;-143.14;100.00;56521.75;4945479;28;20584;-76
2022/05/11 12:22:57;;;;;;;4.10;3.00;;;28.30;99.90;;;-143.14;100.00;56521.75;4945927;28;20619;-76
2022/05/11 12:25:36;;;;;;;3.60;3.23;;;28.40;99.90;;;-143.14;100.00;56521.75;4945312;29;20472;-76
2022/05/11 12:28:19;;;;;;;4.47;3.20;;;28.40;99.90;;;-143.14;100.00;56521.75;4945941;28;20468;-76
2022/05/11 12:30:48;;;;;;;3.97;3.57;;;28.40;99.90;;;-143.14;100.00;56521.75;4945722;28;20484;-76
2022/05/11 12:33:24;;;;;;;6.20;3.60;;;28.40;99.90;;;-143.14;100.00;56521.75;4945275;28;20462;-76
2022/05/11 12:35:52;;;;;;;4.40;3.53;;;28.30;99.90;;;-143.14;100.00;56521.75;4946646;28;20463;-75
2022/05/11 12:38:32;;;;;;;9.10;3.10;;;28.30;99.90;;;-143.14;100.00;56521.75;4949705;28;20752;-75
2022/05/11 12:41:08;;;;;;;6.90;3.80;;;28.40;99.90;;;-143.14;100.00;56521.75;4949824;28;20511;-76
2022/05/11 12:43:39;;;;;;;3.97;3.60;;;28.50;99.90;;;-143.14;100.00;56521.75;4950354;28;20493;-70
2022/05/11 12:46:11;;;;;;;5.43;3.63;;;28.50;99.90;;;-143.14;100.00;56521.75;4949791;28;20985;-68
2022/05/11 12:48:45;;;;;;;42.23;19.13;;;28.60;99.90;;;-143.14;100.00;56521.75;4949916;28;20452;-71
2022/05/11 12:51:16;;;;;;;9.90;5.10;;;28.70;99.90;;;-143.14;100.00;56521.75;4950195;29;20476;-71
2022/05/11 12:53:51;;;;;;;6.20;3.43;;;28.70;99.90;;;-143.14;100.00;56521.75;4949969;28;20545;-71
2022/05/11 12:56:22;;;;;;;4.67;3.77;;;28.80;98.50;;;-143.14;100.00;56521.75;4949371;28;20584;-71
2022/05/11 12:58:52;;;;;;;7.17;2.90;;;28.80;98.60;;;-143.14;100.00;56521.75;4950084;28;20467;-76
2022/05/11 13:01:24;;;;;;;5.20;2.93;;;28.80;97.50;;;-143.14;100.00;56521.75;4949825;28;20508;-75
2022/05/11 13:03:54;;;;;;;4.30;3.37;;;28.80;97.60;;;-143.14;100.00;56521.75;4949977;28;20544;-76
2022/05/11 13:06:30;;;;;;;5.73;3.00;;;28.80;97.50;;;-143.14;100.00;56521.75;4949370;28;20445;-76
2022/05/11 13:09:04;;;;;;;3.90;3.37;;;28.80;98.10;;;-143.14;100.00;56521.75;4950099;28;20453;-76
2022/05/11 13:11:35;;;;;;;5.60;3.50;;;28.90;98.00;;;-143.14;100.00;56521.75;4950155;28;20483;-76
2022/05/11 13:14:09;;;;;;;4.87;2.93;;;28.90;98.40;;;-143.14;100.00;56521.75;4949405;28;20457;-76
2022/05/11 13:16:38;;;;;;;3.70;3.10;;;29.00;98.10;;;-143.14;100.00;56521.75;4949785;28;20862;-76
2022/05/11 13:19:23;;;;;;;8.87;3.10;;;29.20;97.70;;;-143.14;100.00;56521.75;4949214;28;20889;-74
2022/05/11 13:21:52;;;;;;;6.00;3.10;;;29.20;98.20;;;-143.14;100.00;56521.75;4949211;28;20584;-73
2022/05/11 13:24:39;;;;;;;4.23;3.10;;;29.30;96.60;;;-143.14;100.00;56521.75;4948945;28;20544;-73
2022/05/11 13:27:43;;;;;;;4.87;3.13;;;29.30;96.20;;;-143.14;100.00;56521.75;4949214;28;20540;-74
2022/05/11 13:30:23;;;;;;;3.40;3.10;;;29.40;96.40;;;-143.14;100.00;56521.75;4945281;28;20524;-74
2022/05/11 13:32:55;;;;;;;4.23;3.03;;;29.30;95.10;;;-143.14;100.00;56521.75;4949350;28;20543;-74
2022/05/11 13:35:30;;;;;;;3.90;2.93;;;29.30;94.60;;;-143.14;100.00;56521.75;4949645;29;20453;-73
2022/05/11 13:38:19;;;;;;;4.23;3.00;;;29.30;94.60;;;-143.14;100.00;56521.75;4949183;28;20942;-74
2022/05/11 13:41:00;;;;;;;5.77;3.13;;;29.40;94.80;;;-143.14;100.00;56521.75;4949548;28;20553;-74
2022/05/11 13:43:31;;;;;;;5.77;2.87;;;29.50;94.20;;;-143.14;100.00;56521.75;4949440;28;20536;-74
2022/05/11 13:46:02;;;;;;;4.27;2.93;;;29.50;94.20;;;-143.14;100.00;56521.75;4948381;28;20493;-74
2022/05/11 13:48:34;;;;;;;4.63;3.30;;;29.50;93.20;;;-143.14;100.00;56521.75;4948090;28;20454;-74
2022/05/11 13:51:18;;;;;;;4.50;3.07;;;29.60;93.20;;;-143.14;100.00;56521.75;4948704;28;20509;-74
2022/05/11 13:53:49;;;;;;;5.60;3.30;;;29.60;93.10;;;-143.14;100.00;56521.75;4948938;28;20548;-76
2022/05/11 13:56:26;;;;;;;5.70;3.43;;;29.60;93.20;;;-143.14;100.00;56521.75;4948360;28;20434;-75
2022/05/11 13:59:15;;;;;;;5.80;3.07;;;29.50;92.60;;;-143.14;100.00;56521.75;4949033;28;20461;-76
2022/05/11 14:01:47;;;;;;;4.80;2.97;;;29.50;92.60;;;-143.14;100.00;56521.75;4948331;28;21010;-77
2022/05/11 14:04:23;;;;;;;6.17;3.43;;;29.60;93.20;;;-143.14;100.00;56521.75;4947966;28;20488;-76
2022/05/11 14:07:05;;;;;;;4.60;3.00;;;29.60;91.40;;;-143.14;100.00;56521.75;4948461;28;20453;-77
2022/05/11 14:09:35;;;;;;;6.70;2.87;;;29.70;92.20;;;-143.14;100.00;56521.75;4948300;28;20464;-76
2022/05/11 14:12:02;;;;;;;4.10;2.77;;;29.80;91.60;;;-143.14;100.00;56521.75;4947998;29;20958;-75
2022/05/11 14:14:30;;;;;;;6.40;2.57;;;29.80;91.00;;;-143.14;100.00;56521.75;4948424;28;20533;-76
2022/05/11 14:17:01;;;;;;;4.90;2.80;;;29.70;91.00;;;-143.14;100.00;56521.75;4949052;28;20544;-76
2022/05/11 14:19:29;;;;;;;4.57;3.07;;;29.70;89.70;;;-143.14;100.00;56521.75;4948293;28;20461;-74
2022/05/11 14:21:59;;;;;;;3.93;2.80;;;29.70;89.00;;;-143.14;100.00;56521.75;4949906;28;20507;-69
2022/05/11 14:24:26;;;;;;;4.10;2.70;;;29.60;90.30;;;-143.14;100.00;56521.75;4947814;28;20453;-69
2022/05/11 14:26:53;;;;;;;2.83;2.63;;;29.60;90.40;;;-143.14;100.00;56521.75;4948300;28;20863;-70
2022/05/11 14:29:21;;;;;;;2.97;2.70;;;29.70;90.40;;;-143.14;100.00;56521.75;4948170;28;20457;-70
2022/05/11 14:31:49;;;;;;;4.63;2.90;;;29.70;90.50;;;-143.14;100.00;56521.75;4947827;28;20907;-70
2022/05/11 14:34:25;;;;;;;4.30;3.20;;;29.80;90.10;;;-143.14;100.00;56521.75;4946410;28;20920;-71
2022/05/11 14:36:54;;;;;;;6.73;3.70;;;29.80;90.60;;;-143.14;100.00;56521.75;4947177;28;20452;-70
2022/05/11 14:39:25;;;;;;;3.57;2.90;;;29.80;89.30;;;-143.14;100.00;56521.75;4947487;28;21237;-70
2022/05/11 14:41:52;;;;;;;3.97;3.10;;;29.80;88.50;;;-143.14;100.00;56521.75;4947964;28;20524;-70
2022/05/11 14:44:21;;;;;;;3.60;2.90;;;29.80;90.30;;;-143.14;100.00;56521.75;4947111;28;20449;-70
2022/05/11 14:46:48;;;;;;;5.83;3.50;;;29.90;88.70;;;-143.14;100.00;56521.75;4948091;28;20462;-72
2022/05/11 14:49:15;;;;;;;3.87;2.80;;;29.90;88.00;;;-143.14;100.00;56521.75;4948201;28;20839;-70
2022/05/11 14:51:42;;;;;;;3.23;2.93;;;30.00;86.40;;;-143.14;100.00;56521.75;4947829;28;20469;-70
2022/05/11 14:54:13;;;;;;;9.30;3.37;;;30.00;86.00;;;-143.14;100.00;56521.75;4947561;28;20783;-71
2022/05/11 14:56:41;;;;;;;3.90;2.90;;;30.10;85.10;;;-143.14;100.00;56521.75;4948025;28;20454;-71
2022/05/11 15:01:59;;;;;;;6.13;2.93;;;30.10;87.50;;;-143.14;100.00;56521.75;4947657;29;20504;-72